Lewisville's Hourly Summary for Thursday, July 5, 2018
Hour Temp
(f)
RH
(%)
Solar Rad.
(MJ/m2)
Rainfall
(in)
Wind
(mph)
7/5/2018 12:00 AM 79 66 0 0 5.87
7/5/2018 1:00 AM 78 70 0 0 4.86
7/5/2018 2:00 AM 76 73 0 0 1.01
7/5/2018 3:00 AM 73 80 0 0 0
7/5/2018 4:00 AM 72 86 0 0 0
7/5/2018 5:00 AM 72 88 0 0 0
7/5/2018 6:00 AM 71 88 0.03 0 0
7/5/2018 7:00 AM 75 72 0.42 0 0.03
7/5/2018 8:00 AM 79 66 1.1 0 1.66
7/5/2018 9:00 AM 81 60 1.57 0 2.56
7/5/2018 10:00 AM 83 58 2.4 0 4.51
7/5/2018 11:00 AM 85 51 2.83 0 4.41
7/5/2018 12:00 PM 88 48 3.14 0 5.03
7/5/2018 1:00 PM 90 45 2.55 0 4.84
7/5/2018 2:00 PM 91 41 1.8 0 3.85
7/5/2018 3:00 PM 93 38 2.21 0 4.17
7/5/2018 4:00 PM 94 36 2.32 0 4.2
7/5/2018 5:00 PM 94 37 1.89 0 3.59
7/5/2018 6:00 PM 93 38 0.88 0 5.03
7/5/2018 7:00 PM 89 53 0.25 0 5.38
7/5/2018 8:00 PM 89 47 0.08 0 5.69
7/5/2018 9:00 PM 87 52 0 0 4.11
7/5/2018 10:00 PM 86 56 0 0 3.01
7/5/2018 11:00 PM 85 59 0 0 3.49
Data Summary 83 58 23.47 0.00 3.22